Clearview City, Kansas
Current Conditions -  °F | °C
As of 2:25 PM on Monday 22 Dec 2014 (Local Time) from KIXD Reporting Station
Overcast Overcast  
Wind Chill: 41°   Ceiling: 600
Heat Index: 46°   Visibility: 9mi
Dew Point: 45°   Wind: 9mph
Humidity: 96%   Direction: 230°SW
Pressure: 29.44"   Gusts: NA
Location:  38.95°N, 95°W
Report Text: KIXD 222025Z 23008KT 9SM OVC006 08/07 A2944 RMK AO2 CIG 005V011 T00780072
Loading
Personal Weather Stations






























Interactive Weather Map New forecast layout! Learn more

10-Day Weather Forecast

Advertisements
Track Severe Weather on mobile